Time;durP1;ratioP1;P1;durP2;ratioP2;P2;SDS_P1;SDS_P2;PMS_P1;PMS_P2;Temp;Humidity;BMP_temperature;BMP_pressure;BME280_temperature;BME280_humidity;BME280_pressure;Samples;Min_cycle;Max_cycle;Signal;HPM_P1;HPM_P2
2021/03/14 08:47:07;;;;;;;2.87;1.40;;;;;;;22.01;48.36;97810.50;21154633;27;21421;-72
2021/03/14 08:57:16;;;;;;;5.83;1.80;;;;;;;22.04;48.64;97810.09;21128866;28;20260;-71
2021/03/14 09:07:19;;;;;;;4.57;1.93;;;;;;;22.19;48.60;97821.25;21130944;28;20276;-71
2021/03/14 09:17:24;;;;;;;3.57;1.70;;;;;;;22.27;48.56;97834.13;21129278;28;20203;-71
2021/03/14 09:27:29;;;;;;;3.30;1.53;;;;;;;22.34;48.48;97855.88;21124952;28;20203;-71
2021/03/14 09:37:31;;;;;;;5.50;1.57;;;;;;;22.38;48.39;97870.16;21119365;28;20241;-70
2021/03/14 09:48:01;;;;;;;4.53;1.60;;;;;;;22.47;48.53;97885.69;21099486;28;20631;-70
2021/03/14 09:58:16;;;;;;;4.33;1.83;;;;;;;22.48;48.54;97876.84;21060190;28;20246;-71
2021/03/14 10:08:22;;;;;;;7.77;1.90;;;;;;;22.49;48.22;97879.25;21059555;28;20272;-70
2021/03/14 10:18:25;;;;;;;31.27;3.00;;;;;;;22.50;48.08;97887.91;21062470;28;20686;-71
2021/03/14 10:28:27;;;;;;;3.70;2.00;;;;;;;22.55;48.19;97898.63;21069870;28;21149;-69
2021/03/14 10:38:43;;;;;;;3.40;1.93;;;;;;;22.58;48.14;97896.44;21061325;28;20227;-70
2021/03/14 10:49:01;;;;;;;3.87;2.17;;;;;;;22.62;47.85;97896.84;21077200;28;20215;-71
2021/03/14 10:59:04;;;;;;;2.20;1.53;;;;;;;22.67;47.84;97897.09;21060059;28;20223;-71
2021/03/14 11:09:27;;;;;;;3.77;1.80;;;;;;;22.74;47.46;97887.50;21063827;28;20359;-70
2021/03/14 11:19:29;;;;;;;2.27;1.50;;;;;;;22.81;47.25;97885.69;21061020;28;20223;-70
2021/03/14 11:29:34;;;;;;;4.50;1.80;;;;;;;22.83;47.51;97875.88;21054962;28;20219;-70
2021/03/14 11:39:43;;;;;;;3.40;1.70;;;;;;;22.85;47.41;97871.25;21051164;28;20226;-68
2021/03/14 11:49:52;;;;;;;2.30;1.40;;;;;;;22.89;47.20;97859.44;21056571;28;20234;-69
2021/03/14 11:59:56;;;;;;;4.40;1.40;;;;;;;22.90;47.22;97851.41;21058279;28;20219;-69
2021/03/14 12:09:59;;;;;;;3.43;1.37;;;;;;;22.91;47.31;97836.50;21051696;28;20283;-69
2021/03/14 12:20:03;;;;;;;1.50;1.40;;;;;;;22.92;47.52;97819.84;21060589;28;20281;-68
2021/03/14 12:30:14;;;;;;;2.67;1.50;;;;;;;22.93;47.37;97824.06;21057497;28;20252;-68
2021/03/14 12:40:16;;;;;;;1.97;1.60;;;;;;;22.93;47.39;97818.81;21057823;28;20223;-69
2021/03/14 12:50:20;;;;;;;3.13;1.90;;;;;;;22.92;47.74;97815.44;21059579;28;20265;-68
2021/03/14 13:00:22;;;;;;;4.33;1.90;;;;;;;22.90;47.79;97814.00;21058079;28;20770;-68
2021/03/14 13:10:25;;;;;;;4.70;2.10;;;;;;;22.91;47.75;97812.97;21064925;28;20226;-69
2021/03/14 13:20:27;;;;;;;1.60;1.40;;;;;;;22.92;47.93;97822.47;21061833;28;20220;-68
2021/03/14 13:30:29;;;;;;;3.37;1.47;;;;;;;22.92;48.21;97843.34;21073993;28;20216;-69
2021/03/14 13:40:32;;;;;;;2.30;1.60;;;;;;;22.91;47.99;97845.16;21079987;28;20576;-68
2021/03/14 13:50:34;;;;;;;1.57;1.30;;;;;;;22.91;48.06;97846.94;21076998;28;20269;-69
2021/03/14 14:00:36;;;;;;;3.00;1.60;;;;;;;22.91;48.13;97846.94;21074833;28;20204;-69
2021/03/14 14:10:39;;;;;;;1.40;1.30;;;;;;;22.94;48.04;97857.03;21062593;28;20513;-69
2021/03/14 14:20:42;;;;;;;2.47;1.50;;;;;;;23.68;46.26;97865.72;21045637;28;21295;-68
2021/03/14 14:30:44;;;;;;;2.60;1.57;;;;;;;23.08;47.72;97883.03;21068279;28;20579;-68
2021/03/14 14:40:46;;;;;;;1.97;1.43;;;;;;;22.97;47.93;97878.38;21070295;28;20215;-68
2021/03/14 14:50:48;;;;;;;1.83;1.70;;;;;;;22.93;48.02;97898.03;21063421;28;20229;-70
2021/03/14 15:00:50;;;;;;;1.40;1.30;;;;;;;23.04;47.98;97907.91;21053386;28;20243;-70
2021/03/14 15:10:52;;;;;;;1.53;1.43;;;;;;;23.00;48.20;97913.75;21060096;28;20215;-70
2021/03/14 15:20:54;;;;;;;1.87;1.70;;;;;;;23.01;47.99;97916.16;21057117;28;20254;-69
2021/03/14 15:30:56;;;;;;;5.73;1.50;;;;;;;22.96;48.63;97918.53;21067448;28;20253;-69
2021/03/14 15:40:58;;;;;;;2.60;1.87;;;;;;;22.92;48.81;97922.56;21067304;28;20223;-72
2021/03/14 15:51:00;;;;;;;2.03;1.63;;;;;;;22.92;48.99;97929.59;21057269;28;20242;-70
2021/03/14 16:01:02;;;;;;;2.30;1.70;;;;;;;22.88;48.98;97936.19;21059478;28;20215;-71
2021/03/14 16:11:04;;;;;;;2.37;1.63;;;;;;;22.88;48.84;97941.41;21064570;28;20224;-71
2021/03/14 16:21:06;;;;;;;3.10;1.77;;;;;;;22.86;49.09;97938.19;21065543;28;20606;-72
2021/03/14 16:31:10;;;;;;;3.40;1.60;;;;;;;22.87;49.24;97950.25;21065191;28;20215;-72
2021/03/14 16:41:12;;;;;;;2.57;2.10;;;;;;;22.85;49.37;97949.63;21063079;28;20223;-71
2021/03/14 16:51:14;;;;;;;7.80;6.47;;;;;;;22.84;49.71;97956.66;21053023;28;20954;-72
2021/03/14 17:01:16;;;;;;;7.50;6.70;;;;;;;22.85;49.88;97962.69;21058285;28;20215;-71
2021/03/14 17:11:18;;;;;;;10.37;7.20;;;;;;;22.84;50.06;97980.16;21073173;28;20257;-71
2021/03/14 17:21:20;;;;;;;13.23;6.50;;;;;;;22.86;50.50;97990.44;21053391;28;20324;-69
2021/03/14 17:31:23;;;;;;;9.93;6.50;;;;;;;22.90;50.33;98010.78;21060548;28;20235;-69
2021/03/14 17:41:24;;;;;;;7.83;5.70;;;;;;;22.90;50.26;98031.69;21065485;28;20674;-70
2021/03/14 17:51:27;;;;;;;8.40;5.93;;;;;;;22.90;50.10;98029.06;21052784;28;20235;-70
2021/03/14 18:01:29;;;;;;;7.67;6.13;;;;;;;22.89;49.99;98042.34;21053184;28;20243;-70
2021/03/14 18:11:31;;;;;;;9.33;6.20;;;;;;;22.88;49.75;98062.41;21054465;28;20759;-71
2021/03/14 18:21:33;;;;;;;8.03;6.60;;;;;;;22.87;49.77;98073.06;21062824;28;20239;-71
2021/03/14 18:31:35;;;;;;;6.97;6.07;;;;;;;22.86;49.63;98064.41;21037358;28;20266;-70
2021/03/14 18:41:37;;;;;;;8.50;5.93;;;;;;;22.84;49.93;98069.00;21055651;28;20243;-70
2021/03/14 18:51:39;;;;;;;10.47;6.33;;;;;;;22.85;49.81;98082.88;21074975;28;20266;-69
2021/03/14 19:01:41;;;;;;;6.83;6.20;;;;;;;22.84;49.97;98083.91;21053140;28;21014;-70
2021/03/14 19:11:44;;;;;;;6.87;5.90;;;;;;;22.85;50.13;98083.69;21061639;28;20239;-73
2021/03/14 19:21:45;;;;;;;7.03;5.70;;;;;;;22.84;50.27;98102.97;21060682;28;20277;-74
2021/03/14 19:31:48;;;;;;;6.43;5.70;;;;;;;22.86;50.29;98110.63;21056304;28;20291;-74
2021/03/14 19:41:49;;;;;;;7.23;5.50;;;;;;;22.85;50.18;98116.84;21055379;28;20220;-74
2021/03/14 19:51:52;;;;;;;5.50;4.63;;;;;;;22.84;50.20;98118.66;21047373;28;20235;-73
2021/03/14 20:01:54;;;;;;;5.70;5.10;;;;;;;22.84;50.19;98123.09;21046375;28;20254;-73
2021/03/14 20:11:56;;;;;;;9.07;5.17;;;;;;;22.83;50.48;98132.72;21050500;28;20262;-69
2021/03/14 20:21:58;;;;;;;5.47;4.93;;;;;;;22.82;50.37;98130.28;21044989;28;20246;-72
2021/03/14 20:32:01;;;;;;;7.10;5.10;;;;;;;22.82;50.48;98138.94;21051226;28;20743;-73
2021/03/14 20:42:03;;;;;;;6.13;4.03;;;;;;;22.81;50.78;98142.53;21046689;28;20243;-72
2021/03/14 20:52:05;;;;;;;5.33;4.80;;;;;;;22.81;50.82;98126.06;21051356;28;20239;-74
2021/03/14 21:02:07;;;;;;;5.87;5.37;;;;;;;22.79;50.69;98125.44;21051698;28;20303;-73
